Time;durP1;ratioP1;P1;durP2;ratioP2;P2;SDS_P1;SDS_P2;PMS_P1;PMS_P2;Temp;Humidity;BMP_temperature;BMP_pressure;BME280_temperature;BME280_humidity;BME280_pressure;Samples;Min_cycle;Max_cycle;Signal;HPM_P1;HPM_P2
2022/07/13 00:03:10;;;;;;;;;;;22.00;99.90;;;;;;8366872;28;20313;-76
2022/07/13 00:07:12;;;;;;;;;;;22.00;99.90;;;;;;8379455;28;20286;-76
2022/07/13 00:11:13;;;;;;;;;;;22.00;99.90;;;;;;8364471;28;19924;-77
2022/07/13 00:15:15;;;;;;;;;;;22.00;99.90;;;;;;8371928;28;19950;-77
2022/07/13 00:19:17;;;;;;;;;;;21.90;99.90;;;;;;8367777;28;19924;-77
2022/07/13 00:23:19;;;;;;;;;;;21.90;99.90;;;;;;8379576;28;19932;-76
2022/07/13 00:27:20;;;;;;;;;;;21.80;99.90;;;;;;8376099;28;19936;-77
2022/07/13 00:31:22;;;;;;;;;;;21.80;99.90;;;;;;8364709;28;19921;-76
2022/07/13 00:35:24;;;;;;;;;;;21.80;99.90;;;;;;8378521;28;19954;-77
2022/07/13 00:39:25;;;;;;;;;;;21.70;99.90;;;;;;8356997;28;19928;-76
2022/07/13 00:43:27;;;;;;;;;;;21.70;99.90;;;;;;8371561;28;20287;-77
2022/07/13 00:47:30;;;;;;;;;;;21.70;99.90;;;;;;8373723;28;19920;-77
2022/07/13 00:51:31;;;;;;;;;;;21.70;99.90;;;;;;8366433;28;20023;-77
2022/07/13 00:55:33;;;;;;;;;;;21.60;99.90;;;;;;8360523;28;19928;-77
2022/07/13 00:59:37;;;;;;;;;;;21.60;99.90;;;;;;8370528;28;20894;-76
2022/07/13 01:03:38;;;;;;;;;;;21.60;99.90;;;;;;8382873;28;20577;-77
2022/07/13 01:07:40;;;;;;;;;;;21.60;99.90;;;;;;8379148;28;19932;-77
2022/07/13 01:11:42;;;;;;;;;;;21.60;99.90;;;;;;8369329;28;19924;-76
2022/07/13 01:15:44;;;;;;;;;;;21.60;99.90;;;;;;8368422;28;19929;-77
2022/07/13 01:19:46;;;;;;;;;;;21.60;99.90;;;;;;8362454;28;20377;-77
2022/07/13 01:23:48;;;;;;;;;;;21.60;99.90;;;;;;8382894;28;19928;-77
2022/07/13 01:27:50;;;;;;;;;;;21.60;99.90;;;;;;8377820;28;19928;-77
2022/07/13 01:31:56;;;;;;;;;;;21.50;99.90;;;;;;8367118;28;20269;-77
2022/07/13 01:35:58;;;;;;;;;;;21.60;99.90;;;;;;8366253;28;20423;-77
2022/07/13 01:40:00;;;;;;;;;;;21.60;99.90;;;;;;8371576;28;19977;-77
2022/07/13 01:44:02;;;;;;;;;;;21.60;99.90;;;;;;8375104;28;19944;-76
2022/07/13 01:48:03;;;;;;;;;;;21.60;99.90;;;;;;8365746;28;19948;-76
2022/07/13 01:52:05;;;;;;;;;;;21.60;99.90;;;;;;8367612;28;19931;-77
2022/07/13 01:56:07;;;;;;;;;;;21.60;99.90;;;;;;8391950;28;19924;-77
2022/07/13 02:00:13;;;;;;;;;;;21.60;99.90;;;;;;8364504;28;19933;-77
2022/07/13 02:04:15;;;;;;;;;;;21.70;99.90;;;;;;8363587;28;19924;-77
2022/07/13 02:08:17;;;;;;;;;;;21.60;99.90;;;;;;8385280;28;19932;-76
2022/07/13 02:12:19;;;;;;;;;;;21.70;99.90;;;;;;8374735;28;19931;-77
2022/07/13 02:16:21;;;;;;;;;;;21.70;99.90;;;;;;8373187;28;19928;-77
2022/07/13 02:20:23;;;;;;;;;;;21.70;99.90;;;;;;8379609;28;19928;-76
2022/07/13 02:24:24;;;;;;;;;;;21.60;99.90;;;;;;8374474;28;20414;-76
2022/07/13 02:28:26;;;;;;;;;;;21.70;99.90;;;;;;8376889;28;20298;-77
2022/07/13 02:32:28;;;;;;;;;;;21.60;99.90;;;;;;8375144;28;20407;-77
2022/07/13 02:36:29;;;;;;;;;;;21.60;99.90;;;;;;8364327;28;19936;-76
2022/07/13 02:40:31;;;;;;;;;;;21.60;99.90;;;;;;8370037;28;19928;-76
2022/07/13 02:44:33;;;;;;;;;;;21.60;99.90;;;;;;8378317;28;19966;-76
2022/07/13 02:48:34;;;;;;;;;;;21.50;99.90;;;;;;8361861;28;19928;-77
2022/07/13 02:52:36;;;;;;;;;;;21.50;99.90;;;;;;8377254;28;20380;-77
2022/07/13 02:56:38;;;;;;;;;;;21.50;99.90;;;;;;8364791;28;19932;-76
2022/07/13 03:00:40;;;;;;;;;;;21.40;99.90;;;;;;8372051;28;20344;-76
2022/07/13 03:04:41;;;;;;;;;;;21.40;99.90;;;;;;8377860;28;19932;-76
2022/07/13 03:08:43;;;;;;;;;;;21.40;99.90;;;;;;8381534;28;19925;-77
2022/07/13 03:12:45;;;;;;;;;;;21.40;99.90;;;;;;8374716;28;19933;-77
2022/07/13 03:16:46;;;;;;;;;;;21.40;99.90;;;;;;8366655;28;19925;-76
2022/07/13 03:20:48;;;;;;;;;;;21.40;99.90;;;;;;8366933;28;19970;-77
2022/07/13 03:24:50;;;;;;;;;;;21.40;99.90;;;;;;8376348;28;19940;-76
2022/07/13 03:28:52;;;;;;;;;;;21.30;99.90;;;;;;8385972;28;20287;-76
2022/07/13 03:32:54;;;;;;;;;;;21.30;99.90;;;;;;8372310;28;19925;-76
2022/07/13 03:36:56;;;;;;;;;;;21.30;99.90;;;;;;8364456;28;19928;-76
2022/07/13 03:40:57;;;;;;;;;;;21.20;99.90;;;;;;8360332;28;19925;-77
2022/07/13 03:44:59;;;;;;;;;;;21.30;99.90;;;;;;8374472;28;19928;-76
2022/07/13 03:49:01;;;;;;;;;;;21.20;99.90;;;;;;8374274;28;20016;-77
2022/07/13 03:53:02;;;;;;;;;;;21.20;99.90;;;;;;8368073;28;19932;-76
2022/07/13 03:57:04;;;;;;;;;;;21.20;99.90;;;;;;8376980;28;19931;-77
2022/07/13 04:01:05;;;;;;;;;;;21.20;99.90;;;;;;8373467;28;19925;-77
2022/07/13 04:05:07;;;;;;;;;;;21.20;99.90;;;;;;8366117;28;19936;-77
2022/07/13 04:09:13;;;;;;;;;;;21.10;99.90;;;;;;8375797;28;19957;-76
2022/07/13 04:13:15;;;;;;;;;;;21.10;99.90;;;;;;8383433;28;19928;-76
2022/07/13 04:17:17;;;;;;;;;;;21.10;99.90;;;;;;8374055;28;19929;-76
2022/07/13 04:21:18;;;;;;;;;;;21.10;99.90;;;;;;8362849;28;20402;-76
2022/07/13 04:25:20;;;;;;;;;;;21.10;99.90;;;;;;8371807;28;19929;-76
2022/07/13 04:29:22;;;;;;;;;;;21.10;99.90;;;;;;8372355;28;20355;-76
2022/07/13 04:38:20;;;;;;;;;;;21.10;99.90;;;;;;8372353;28;19923;-76
2022/07/13 04:42:22;;;;;;;;;;;21.10;99.90;;;;;;8398238;28;19925;-76
2022/07/13 04:46:24;;;;;;;;;;;21.10;99.90;;;;;;8377852;28;19932;-76
2022/07/13 04:50:26;;;;;;;;;;;21.20;99.90;;;;;;8382204;28;20021;-76
2022/07/13 04:54:28;;;;;;;;;;;21.20;99.90;;;;;;8373934;28;19935;-76
2022/07/13 04:58:30;;;;;;;;;;;21.20;99.90;;;;;;8383275;28;20096;-76
2022/07/13 05:02:32;;;;;;;;;;;21.20;99.90;;;;;;8399467;28;20291;-76
2022/07/13 05:06:34;;;;;;;;;;;21.30;99.90;;;;;;8386623;28;19932;-76
2022/07/13 05:10:35;;;;;;;;;;;21.30;99.90;;;;;;8358901;28;20282;-76
2022/07/13 05:14:37;;;;;;;;;;;21.30;99.90;;;;;;8382445;28;20402;-76
2022/07/13 05:18:38;;;;;;;;;;;21.40;99.90;;;;;;8385152;28;19925;-76
2022/07/13 05:22:40;;;;;;;;;;;21.40;99.90;;;;;;8376311;28;19971;-76
2022/07/13 05:26:42;;;;;;;;;;;21.40;99.90;;;;;;8395307;28;19924;-76
2022/07/13 05:30:44;;;;;;;;;;;21.50;99.90;;;;;;8388921;28;19932;-76
2022/07/13 05:34:45;;;;;;;;;;;21.50;99.90;;;;;;8394529;28;19933;-76
2022/07/13 05:38:47;;;;;;;;;;;21.50;99.90;;;;;;8371444;28;19932;-76
2022/07/13 05:42:49;;;;;;;;;;;21.50;99.90;;;;;;8372326;28;19932;-76
2022/07/13 05:46:50;;;;;;;;;;;21.60;99.90;;;;;;8384449;28;19969;-76
2022/07/13 05:50:52;;;;;;;;;;;21.60;99.90;;;;;;8354217;28;19988;-76
2022/07/13 05:55:14;;;;;;;;;;;21.70;99.90;;;;;;8368686;28;19935;-76
2022/07/13 05:59:15;;;;;;;;;;;21.70;99.90;;;;;;8360457;28;19936;-76
2022/07/13 06:03:18;;;;;;;;;;;21.70;99.90;;;;;;8384069;28;19924;-76
2022/07/13 06:07:20;;;;;;;;;;;21.80;99.90;;;;;;8365448;28;20383;-76
2022/07/13 06:11:21;;;;;;;;;;;21.80;99.90;;;;;;8357342;28;20285;-76
2022/07/13 06:15:23;;;;;;;;;;;21.90;99.90;;;;;;8361957;28;20307;-76
2022/07/13 06:19:24;;;;;;;;;;;21.90;99.90;;;;;;8364408;28;20375;-76
2022/07/13 06:23:26;;;;;;;;;;;21.90;99.90;;;;;;8369734;28;19925;-76
2022/07/13 06:27:28;;;;;;;;;;;22.00;99.90;;;;;;8366699;28;20344;-76
2022/07/13 06:31:29;;;;;;;;;;;22.00;99.90;;;;;;8383555;28;19932;-76
2022/07/13 06:35:31;;;;;;;;;;;22.10;99.90;;;;;;8365484;28;19964;-75
2022/07/13 06:39:33;;;;;;;;;;;22.10;99.90;;;;;;8366328;28;20604;-76
2022/07/13 06:43:35;;;;;;;;;;;22.10;99.90;;;;;;8362067;28;19928;-76
2022/07/13 06:47:37;;;;;;;;;;;22.20;99.90;;;;;;8362262;28;19936;-76
2022/07/13 06:51:38;;;;;;;;;;;22.30;99.90;;;;;;8360279;28;19925;-76
2022/07/13 06:55:43;;;;;;;;;;;22.30;99.90;;;;;;8358386;28;19986;-76
2022/07/13 06:59:45;;;;;;;;;;;22.40;99.90;;;;;;8360239;28;19933;-75
2022/07/13 07:03:47;;;;;;;;;;;22.50;99.90;;;;;;8358140;28;19924;-75
2022/07/13 07:07:48;;;;;;;;;;;22.60;99.90;;;;;;8348991;28;19936;-75
2022/07/13 07:11:50;;;;;;;;;;;22.70;99.90;;;;;;8357140;28;19935;-76
2022/07/13 07:15:52;;;;;;;;;;;22.70;99.90;;;;;;8360300;28;19979;-75
2022/07/13 07:19:57;;;;;;;;;;;22.70;99.90;;;;;;8383595;28;19939;-76
2022/07/13 07:23:59;;;;;;;;;;;22.80;99.90;;;;;;8371819;28;20324;-75
2022/07/13 07:28:00;;;;;;;;;;;22.80;99.90;;;;;;8362864;28;19935;-76
2022/07/13 07:32:02;;;;;;;;;;;22.90;99.90;;;;;;8362554;28;20002;-76
2022/07/13 07:36:05;;;;;;;;;;;22.90;99.90;;;;;;8361434;28;19932;-76
2022/07/13 07:40:08;;;;;;;;;;;23.00;99.90;;;;;;8362789;28;19924;-75
2022/07/13 07:44:09;;;;;;;;;;;23.10;99.90;;;;;;8351286;28;19925;-76
2022/07/13 07:48:11;;;;;;;;;;;23.20;99.90;;;;;;8362809;28;19932;-75
2022/07/13 07:52:13;;;;;;;;;;;23.20;99.90;;;;;;8356012;28;19924;-76
2022/07/13 07:56:35;;;;;;;;;;;23.20;99.90;;;;;;8357770;28;20075;-75
2022/07/13 08:00:37;;;;;;;;;;;23.30;99.90;;;;;;8363130;28;19933;-75
2022/07/13 08:04:39;;;;;;;;;;;23.50;99.90;;;;;;8350892;28;20264;-75
2022/07/13 08:08:40;;;;;;;;;;;23.70;99.90;;;;;;8366987;28;19932;-76
2022/07/13 08:12:43;;;;;;;;;;;23.80;99.90;;;;;;8372888;28;20426;-75
2022/07/13 08:16:45;;;;;;;;;;;23.90;99.90;;;;;;8364310;28;19929;-75
2022/07/13 08:20:46;;;;;;;;;;;24.00;99.90;;;;;;8361301;28;20418;-75
2022/07/13 08:24:48;;;;;;;;;;;24.00;99.90;;;;;;8366264;28;19936;-75
2022/07/13 08:28:50;;;;;;;;;;;24.10;99.90;;;;;;8358547;28;19928;-75
2022/07/13 08:32:52;;;;;;;;;;;24.20;99.90;;;;;;8355081;28;19933;-75
2022/07/13 08:41:15;;;;;;;;;;;24.40;99.90;;;;;;8366572;28;19939;-75
2022/07/13 08:45:17;;;;;;;;;;;24.50;99.90;;;;;;8378855;28;19940;-75
2022/07/13 08:49:19;;;;;;;;;;;24.60;99.90;;;;;;8366002;28;19929;-75
2022/07/13 08:53:22;;;;;;;;;;;24.70;99.90;;;;;;8369966;28;19924;-75
2022/07/13 08:57:23;;;;;;;;;;;24.80;99.90;;;;;;8361870;28;19951;-76
2022/07/13 09:01:43;;;;;;;;;;;24.80;99.90;;;;;;8368231;28;19953;-75
2022/07/13 09:05:49;;;;;;;;;;;24.90;99.90;;;;;;8366170;28;19925;-76
2022/07/13 09:09:57;;;;;;;;;;;25.00;99.90;;;;;;8362552;28;19929;-75
2022/07/13 09:14:08;;;;;;;;;;;25.10;99.90;;;;;;8368733;28;19924;-75
2022/07/13 09:18:17;;;;;;;;;;;25.20;99.90;;;;;;8364853;28;19925;-75
2022/07/13 09:22:19;;;;;;;;;;;25.20;99.90;;;;;;8362814;28;20328;-75
2022/07/13 09:26:21;;;;;;;;;;;25.30;99.90;;;;;;8350529;28;19947;-75
2022/07/13 09:30:26;;;;;;;;;;;25.30;99.90;;;;;;8348426;28;19925;-76
2022/07/13 09:34:47;;;;;;;;;;;25.40;99.90;;;;;;8365945;28;19929;-75
2022/07/13 09:38:51;;;;;;;;;;;25.50;99.90;;;;;;8366970;28;19931;-75
2022/07/13 09:46:08;;;;;;;;;;;25.60;99.90;;;;;;8365619;28;19939;-76
2022/07/13 09:47:19;;;;;;;;;;;25.60;99.90;;;;;;8354272;28;19925;-75
2022/07/13 09:51:27;;;;;;;;;;;25.60;99.90;;;;;;8364380;28;19954;-75
2022/07/13 10:10:39;;;;;;;;;;;26.00;99.90;;;;;;8362933;28;20019;-76
2022/07/13 10:14:41;;;;;;;;;;;26.00;99.90;;;;;;8373423;28;20300;-76
2022/07/13 10:18:43;;;;;;;;;;;26.10;99.90;;;;;;8364590;28;19931;-76
2022/07/13 10:22:46;;;;;;;;;;;26.20;99.90;;;;;;8362397;28;19929;-75
2022/07/13 10:26:48;;;;;;;;;;;26.30;99.90;;;;;;8359399;28;19936;-76
2022/07/13 10:41:16;;;;;;;;;;;26.50;99.90;;;;;;8363196;28;19982;-75
2022/07/13 10:45:38;;;;;;;;;;;26.60;99.90;;;;;;8360165;28;19928;-76
2022/07/13 10:49:46;;;;;;;;;;;26.60;99.90;;;;;;8364590;28;19921;-76
2022/07/13 10:53:50;;;;;;;;;;;26.60;99.90;;;;;;8365985;28;19967;-76
2022/07/13 10:57:52;;;;;;;;;;;26.60;99.90;;;;;;8355847;28;19924;-76
2022/07/13 11:01:54;;;;;;;;;;;26.70;99.90;;;;;;8359205;28;20303;-76
2022/07/13 11:06:06;;;;;;;;;;;26.60;99.90;;;;;;8374869;28;20371;-76
2022/07/13 11:10:20;;;;;;;;;;;26.60;99.90;;;;;;8359187;28;19920;-76
2022/07/13 11:14:41;;;;;;;;;;;26.60;99.90;;;;;;8359105;28;19925;-76
2022/07/13 11:18:51;;;;;;;;;;;26.70;99.90;;;;;;8356824;28;20360;-76
2022/07/13 11:27:26;;;;;;;;;;;26.80;99.90;;;;;;8358318;28;19925;-75
2022/07/13 11:31:28;;;;;;;;;;;26.80;99.90;;;;;;8360870;28;19924;-76
2022/07/13 11:35:30;;;;;;;;;;;26.70;99.90;;;;;;8360433;28;19920;-76
2022/07/13 11:39:33;;;;;;;;;;;26.60;99.90;;;;;;8357105;28;19924;-76
2022/07/13 11:43:44;;;;;;;;;;;26.60;99.90;;;;;;8342131;28;19921;-76
2022/07/13 11:47:45;;;;;;;;;;;26.60;99.90;;;;;;8361413;28;19935;-76
2022/07/13 11:51:50;;;;;;;;;;;26.70;99.90;;;;;;8360259;28;19924;-76
2022/07/13 11:55:54;;;;;;;;;;;26.70;99.90;;;;;;8357132;28;19928;-75
2022/07/13 12:00:00;;;;;;;;;;;26.70;99.90;;;;;;8353867;28;19921;-76
2022/07/13 12:04:05;;;;;;;;;;;26.70;99.90;;;;;;8378060;28;19931;-75
2022/07/13 12:08:07;;;;;;;;;;;26.80;99.90;;;;;;8361804;28;19925;-76
2022/07/13 12:12:09;;;;;;;;;;;26.90;99.90;;;;;;8341569;28;19928;-75
2022/07/13 12:16:11;;;;;;;;;;;26.90;99.90;;;;;;8361659;28;19977;-75
2022/07/13 12:20:17;;;;;;;;;;;26.90;99.90;;;;;;8356479;28;19932;-76
2022/07/13 12:24:19;;;;;;;;;;;26.90;99.90;;;;;;8354627;28;19929;-76
2022/07/13 12:28:28;;;;;;;;;;;26.90;99.90;;;;;;8373132;28;19932;-76
2022/07/13 12:32:30;;;;;;;;;;;26.90;99.90;;;;;;8357774;28;19920;-75
2022/07/13 12:36:36;;;;;;;;;;;26.90;99.90;;;;;;8364955;28;19920;-75
2022/07/13 12:40:54;;;;;;;;;;;26.80;99.90;;;;;;8357214;28;19924;-76
2022/07/13 12:44:57;;;;;;;;;;;26.80;99.90;;;;;;8361129;28;19920;-76
2022/07/13 12:49:00;;;;;;;;;;;26.80;99.90;;;;;;8358758;28;20364;-76
2022/07/13 12:53:02;;;;;;;;;;;26.70;99.90;;;;;;8361512;28;19924;-76
2022/07/13 12:57:07;;;;;;;;;;;26.80;99.90;;;;;;8361535;28;19939;-76
2022/07/13 13:01:10;;;;;;;;;;;26.70;99.90;;;;;;8357386;28;20379;-76
2022/07/13 13:05:11;;;;;;;;;;;26.60;99.90;;;;;;8359088;28;19975;-77
2022/07/13 13:09:13;;;;;;;;;;;26.60;99.90;;;;;;8360183;28;19930;-76
2022/07/13 13:13:15;;;;;;;;;;;26.70;99.90;;;;;;8357621;28;19925;-76
2022/07/13 13:17:16;;;;;;;;;;;26.80;99.90;;;;;;8357226;28;20347;-76
2022/07/13 13:21:18;;;;;;;;;;;26.80;99.90;;;;;;8362679;28;19935;-77
2022/07/13 13:25:19;;;;;;;;;;;26.80;99.90;;;;;;8381127;28;19935;-76
2022/07/13 13:33:41;;;;;;;;;;;26.90;99.90;;;;;;8363689;28;19924;-76
2022/07/13 13:38:03;;;;;;;;;;;26.80;99.90;;;;;;8366365;28;19950;-76
2022/07/13 13:42:05;;;;;;;;;;;26.80;99.90;;;;;;8370304;28;19921;-76
2022/07/13 13:46:06;;;;;;;;;;;26.80;99.90;;;;;;8366055;28;20426;-75
2022/07/13 13:50:08;;;;;;;;;;;26.90;99.90;;;;;;8360323;28;19951;-76
2022/07/13 13:54:10;;;;;;;;;;;27.00;99.90;;;;;;8366271;28;19971;-76
2022/07/13 13:58:12;;;;;;;;;;;27.10;99.90;;;;;;8359432;28;25125;-76
2022/07/13 14:02:13;;;;;;;;;;;27.10;99.90;;;;;;8363428;28;19927;-75
2022/07/13 14:06:16;;;;;;;;;;;27.00;99.90;;;;;;8347301;28;20355;-76
2022/07/13 14:10:18;;;;;;;;;;;27.10;99.90;;;;;;8366324;28;20292;-75
2022/07/13 14:14:19;;;;;;;;;;;27.10;99.90;;;;;;8364064;28;19921;-75
2022/07/13 14:18:26;;;;;;;;;;;27.20;99.90;;;;;;8362593;28;19921;-76
2022/07/13 14:22:28;;;;;;;;;;;27.30;99.90;;;;;;8367710;28;19928;-76
2022/07/13 14:26:31;;;;;;;;;;;27.30;99.90;;;;;;8361829;28;19920;-76
2022/07/13 14:30:33;;;;;;;;;;;27.30;99.90;;;;;;8364407;28;19924;-77
2022/07/13 14:34:35;;;;;;;;;;;27.40;99.90;;;;;;8375095;28;19960;-75
2022/07/13 14:38:37;;;;;;;;;;;27.50;99.90;;;;;;8364407;28;20287;-76
2022/07/13 14:42:45;;;;;;;;;;;27.50;99.90;;;;;;8365154;28;19989;-77
2022/07/13 14:46:47;;;;;;;;;;;27.50;99.90;;;;;;8362244;28;19943;-76
2022/07/13 14:50:50;;;;;;;;;;;27.60;99.90;;;;;;8359224;28;19928;-77
2022/07/13 14:55:11;;;;;;;;;;;27.80;99.90;;;;;;8361738;28;19920;-75
2022/07/13 14:59:13;;;;;;;;;;;27.90;99.90;;;;;;8354981;28;25067;-75
2022/07/13 15:03:14;;;;;;;;;;;27.90;99.90;;;;;;8364257;28;25056;-76
2022/07/13 15:07:16;;;;;;;;;;;27.90;99.90;;;;;;8363162;28;19935;-75
2022/07/13 15:11:18;;;;;;;;;;;27.90;99.90;;;;;;8376968;28;19942;-76
2022/07/13 15:15:19;;;;;;;;;;;27.80;99.90;;;;;;8360100;28;20018;-76
2022/07/13 15:19:31;;;;;;;;;;;27.80;99.90;;;;;;8355505;28;25153;-75
2022/07/13 15:23:33;;;;;;;;;;;27.70;99.90;;;;;;8364463;28;20372;-75
2022/07/13 15:27:35;;;;;;;;;;;27.70;99.90;;;;;;8360281;28;25063;-76
2022/07/13 15:31:37;;;;;;;;;;;27.80;99.90;;;;;;8362852;28;19959;-76
2022/07/13 15:35:39;;;;;;;;;;;27.90;99.90;;;;;;8358928;28;19954;-76
2022/07/13 15:39:40;;;;;;;;;;;27.80;99.90;;;;;;8363441;28;19927;-76
2022/07/13 15:43:42;;;;;;;;;;;27.90;99.90;;;;;;8363252;28;25070;-77
2022/07/13 15:47:44;;;;;;;;;;;27.90;99.90;;;;;;8362444;28;19986;-76
2022/07/13 15:51:45;;;;;;;;;;;28.00;99.90;;;;;;8360611;28;20813;-75
2022/07/13 15:55:47;;;;;;;;;;;28.10;99.90;;;;;;8357217;28;19920;-76
2022/07/13 15:59:49;;;;;;;;;;;28.30;99.90;;;;;;8356153;28;19924;-76
2022/07/13 16:03:51;;;;;;;;;;;28.60;99.90;;;;;;8360196;28;19920;-76
2022/07/13 16:07:52;;;;;;;;;;;28.90;99.90;;;;;;8353239;28;19940;-77
2022/07/13 16:11:54;;;;;;;;;;;29.30;99.90;;;;;;8352809;28;19928;-77
2022/07/13 16:15:56;;;;;;;;;;;29.60;99.90;;;;;;8354613;28;19920;-76
2022/07/13 16:19:57;;;;;;;;;;;29.70;99.90;;;;;;8347213;28;20427;-76
2022/07/13 16:23:59;;;;;;;;;;;29.90;99.90;;;;;;8354569;28;20387;-76
2022/07/13 16:28:01;;;;;;;;;;;30.20;99.90;;;;;;8356392;28;20368;-76
2022/07/13 16:32:03;;;;;;;;;;;30.30;99.90;;;;;;8352513;28;19928;-77
2022/07/13 16:36:05;;;;;;;;;;;30.10;99.90;;;;;;8349685;28;19939;-76
2022/07/13 16:40:07;;;;;;;;;;;29.60;99.90;;;;;;8352190;28;19950;-76
2022/07/13 16:44:09;;;;;;;;;;;29.50;99.90;;;;;;8350126;28;19934;-77
2022/07/13 16:48:10;;;;;;;;;;;29.40;99.90;;;;;;8351778;28;20295;-76
2022/07/13 16:52:15;;;;;;;;;;;28.90;99.90;;;;;;8350120;28;19968;-76
2022/07/13 16:56:17;;;;;;;;;;;28.40;99.90;;;;;;8357329;28;19924;-77
2022/07/13 17:00:22;;;;;;;;;;;28.00;99.90;;;;;;8357147;28;19925;-76
2022/07/13 17:04:23;;;;;;;;;;;27.60;99.90;;;;;;8362455;28;20539;-77
2022/07/13 17:08:25;;;;;;;;;;;27.60;99.90;;;;;;8352497;28;19939;-77
2022/07/13 17:12:27;;;;;;;;;;;27.80;99.90;;;;;;8373390;28;19927;-76
2022/07/13 17:16:29;;;;;;;;;;;28.00;99.90;;;;;;8367504;28;19929;-76
2022/07/13 17:20:30;;;;;;;;;;;28.10;99.90;;;;;;8364871;28;19928;-77
2022/07/13 17:24:32;;;;;;;;;;;28.10;99.90;;;;;;8374911;28;19943;-76
2022/07/13 17:28:34;;;;;;;;;;;27.90;99.90;;;;;;8366224;28;19920;-77
2022/07/13 17:32:36;;;;;;;;;;;27.50;99.90;;;;;;8370865;28;19920;-76
2022/07/13 17:36:38;;;;;;;;;;;27.20;99.90;;;;;;8380972;28;19920;-77
2022/07/13 17:40:39;;;;;;;;;;;26.90;99.90;;;;;;8365055;28;19928;-76
2022/07/13 17:44:41;;;;;;;;;;;26.60;99.90;;;;;;8362803;28;19928;-76
2022/07/13 17:48:43;;;;;;;;;;;26.40;99.90;;;;;;8360914;28;19927;-76
2022/07/13 17:52:52;;;;;;;;;;;26.20;99.90;;;;;;8344146;28;19956;-77
2022/07/13 17:56:54;;;;;;;;;;;26.10;99.90;;;;;;8358538;28;20501;-76
2022/07/13 18:00:56;;;;;;;;;;;26.00;99.90;;;;;;8360935;28;20335;-76
2022/07/13 18:05:01;;;;;;;;;;;25.80;99.90;;;;;;8368054;28;19971;-77
2022/07/13 18:19:11;;;;;;;;;;;25.30;99.90;;;;;;8355613;28;20714;-76
2022/07/13 18:27:32;;;;;;;;;;;25.10;99.90;;;;;;8360767;28;19921;-77
2022/07/13 18:31:35;;;;;;;;;;;25.00;99.90;;;;;;8357177;28;19920;-76
2022/07/13 18:35:37;;;;;;;;;;;24.90;99.90;;;;;;8363868;28;20469;-76
2022/07/13 18:39:38;;;;;;;;;;;24.80;99.90;;;;;;8356265;28;19921;-76
2022/07/13 18:43:40;;;;;;;;;;;24.80;99.90;;;;;;8352459;28;19943;-76
2022/07/13 18:47:42;;;;;;;;;;;24.70;99.90;;;;;;8338503;28;19921;-76
2022/07/13 18:51:43;;;;;;;;;;;24.70;99.90;;;;;;8350870;28;19920;-76
2022/07/13 18:55:45;;;;;;;;;;;24.60;99.90;;;;;;8353464;28;19929;-76
2022/07/13 18:59:47;;;;;;;;;;;24.50;99.90;;;;;;8368873;28;19992;-76
2022/07/13 19:03:48;;;;;;;;;;;24.50;99.90;;;;;;8360931;28;19924;-76
2022/07/13 19:07:50;;;;;;;;;;;24.40;99.90;;;;;;8359422;28;19927;-76
2022/07/13 19:11:52;;;;;;;;;;;24.30;99.90;;;;;;8352496;28;19919;-76
2022/07/13 19:15:53;;;;;;;;;;;24.20;99.90;;;;;;8362305;28;19928;-76
2022/07/13 19:19:55;;;;;;;;;;;24.10;99.90;;;;;;8372927;28;20007;-76
2022/07/13 19:24:01;;;;;;;;;;;24.00;99.90;;;;;;8361866;28;19951;-76
2022/07/13 19:28:03;;;;;;;;;;;23.90;99.90;;;;;;8373829;28;19943;-76
2022/07/13 19:32:05;;;;;;;;;;;23.80;99.90;;;;;;8345639;28;19928;-76
2022/07/13 19:36:07;;;;;;;;;;;23.80;99.90;;;;;;8363205;28;19921;-75
2022/07/13 19:40:09;;;;;;;;;;;23.70;99.90;;;;;;8352677;28;20295;-76
2022/07/13 19:44:10;;;;;;;;;;;23.60;99.90;;;;;;8361092;28;19932;-76
2022/07/13 19:48:13;;;;;;;;;;;23.50;99.90;;;;;;8366500;28;20276;-76
2022/07/13 19:52:15;;;;;;;;;;;23.50;99.90;;;;;;8355438;28;19974;-76
2022/07/13 19:56:16;;;;;;;;;;;23.40;99.90;;;;;;8353884;28;19951;-76
2022/07/13 20:00:19;;;;;;;;;;;23.30;99.90;;;;;;8354464;28;19928;-76
2022/07/13 20:04:21;;;;;;;;;;;23.20;99.90;;;;;;8354189;28;19925;-76
2022/07/13 20:08:22;;;;;;;;;;;23.20;99.90;;;;;;8361594;28;20327;-75
2022/07/13 20:12:37;;;;;;;;;;;23.10;99.90;;;;;;8346797;28;19925;-76
2022/07/13 20:16:39;;;;;;;;;;;23.00;99.90;;;;;;8351827;28;20274;-76
2022/07/13 20:20:41;;;;;;;;;;;22.90;99.90;;;;;;8344469;28;20022;-76
2022/07/13 20:34:53;;;;;;;;;;;22.60;99.90;;;;;;8359670;28;19966;-76
2022/07/13 20:38:55;;;;;;;;;;;22.50;99.90;;;;;;8352601;28;19958;-76
2022/07/13 20:42:57;;;;;;;;;;;22.40;99.90;;;;;;8354604;28;19924;-75
2022/07/13 20:46:58;;;;;;;;;;;22.40;99.90;;;;;;8349742;28;19927;-76
2022/07/13 20:51:00;;;;;;;;;;;22.30;99.90;;;;;;8365065;28;19928;-75
2022/07/13 20:55:04;;;;;;;;;;;22.20;99.90;;;;;;8366823;28;19982;-75
2022/07/13 20:59:07;;;;;;;;;;;22.20;99.90;;;;;;8352446;28;19944;-75
2022/07/13 21:03:08;;;;;;;;;;;22.10;99.90;;;;;;8378997;28;19924;-75
2022/07/13 21:07:10;;;;;;;;;;;22.00;99.90;;;;;;8368426;28;20086;-76
2022/07/13 21:11:12;;;;;;;;;;;21.90;99.90;;;;;;8382809;28;19949;-75
2022/07/13 21:15:13;;;;;;;;;;;21.90;99.90;;;;;;8370359;28;20315;-75
2022/07/13 21:19:16;;;;;;;;;;;21.80;99.90;;;;;;8375335;28;19921;-75
2022/07/13 21:23:18;;;;;;;;;;;21.70;99.90;;;;;;8393577;28;19935;-75
2022/07/13 21:27:19;;;;;;;;;;;21.70;99.90;;;;;;8386119;28;19928;-76
2022/07/13 21:31:21;;;;;;;;;;;21.60;99.90;;;;;;8368331;28;19943;-76
2022/07/13 21:35:23;;;;;;;;;;;21.60;99.90;;;;;;8367721;28;19947;-76
2022/07/13 21:39:24;;;;;;;;;;;21.50;99.90;;;;;;8386961;28;19965;-76
2022/07/13 21:43:26;;;;;;;;;;;21.40;99.90;;;;;;8362519;28;20394;-75
2022/07/13 21:47:28;;;;;;;;;;;21.30;99.90;;;;;;8378170;28;19925;-76
2022/07/13 21:51:31;;;;;;;;;;;21.30;99.90;;;;;;8389185;28;19921;-76
2022/07/13 21:55:32;;;;;;;;;;;21.20;99.90;;;;;;8365656;28;19924;-75
2022/07/13 21:59:34;;;;;;;;;;;21.20;99.90;;;;;;8379736;28;19981;-75
2022/07/13 22:03:36;;;;;;;;;;;21.10;99.90;;;;;;8374206;28;19932;-76
2022/07/13 22:07:37;;;;;;;;;;;21.10;99.90;;;;;;8375885;28;19923;-76
2022/07/13 22:11:58;;;;;;;;;;;21.00;99.90;;;;;;8382773;28;19920;-75
2022/07/13 22:16:19;;;;;;;;;;;21.00;99.90;;;;;;8379492;28;19920;-75
2022/07/13 22:20:40;;;;;;;;;;;20.90;99.90;;;;;;8390906;28;19963;-76
2022/07/13 22:25:00;;;;;;;;;;;20.80;99.90;;;;;;8369647;28;19920;-75
2022/07/13 22:29:21;;;;;;;;;;;20.70;99.90;;;;;;8380652;28;19925;-76
2022/07/13 22:33:41;;;;;;;;;;;20.70;99.90;;;;;;8393653;28;20328;-75
2022/07/13 22:38:02;;;;;;;;;;;20.60;99.90;;;;;;8381982;28;20337;-75
2022/07/13 22:42:29;;;;;;;;;;;20.50;99.90;;;;;;8373114;28;20811;-75
2022/07/13 22:46:49;;;;;;;;;;;20.40;99.90;;;;;;8353849;28;19928;-75
2022/07/13 22:51:10;;;;;;;;;;;20.20;99.90;;;;;;8378930;28;19928;-75
2022/07/13 22:55:30;;;;;;;;;;;20.10;99.90;;;;;;8362302;28;19932;-75
2022/07/13 22:59:51;;;;;;;;;;;20.00;99.90;;;;;;8375385;28;19968;-75
2022/07/13 23:04:11;;;;;;;;;;;19.90;99.90;;;;;;8375026;28;19928;-75
2022/07/13 23:08:32;;;;;;;;;;;19.80;99.90;;;;;;8385162;28;19929;-75
2022/07/13 23:12:52;;;;;;;;;;;19.70;99.90;;;;;;8385059;28;19973;-75
2022/07/13 23:17:13;;;;;;;;;;;19.60;99.90;;;;;;8381332;28;19921;-75
2022/07/13 23:21:33;;;;;;;;;;;19.40;99.90;;;;;;8383859;28;19920;-75
2022/07/13 23:25:54;;;;;;;;;;;19.30;99.90;;;;;;8386304;28;19927;-75
2022/07/13 23:29:55;;;;;;;;;;;19.30;99.90;;;;;;8373109;28;20360;-75
2022/07/13 23:33:58;;;;;;;;;;;19.20;99.90;;;;;;8387498;28;20435;-75
2022/07/13 23:37:59;;;;;;;;;;;19.10;99.90;;;;;;8370057;28;19920;-75
2022/07/13 23:42:01;;;;;;;;;;;19.00;99.90;;;;;;8337762;28;19992;-75
2022/07/13 23:46:03;;;;;;;;;;;19.00;99.90;;;;;;8367651;28;19929;-76
2022/07/13 23:50:06;;;;;;;;;;;18.90;99.90;;;;;;8366604;28;19958;-75
2022/07/13 23:54:08;;;;;;;;;;;18.90;99.90;;;;;;8382848;28;19950;-75
2022/07/13 23:58:13;;;;;;;;;;;18.80;99.90;;;;;;8356651;28;19935;-75
